Time;durP1;ratioP1;P1;durP2;ratioP2;P2;SDS_P1;SDS_P2;PMS_P1;PMS_P2;Temp;Humidity;BMP_temperature;BMP_pressure;BME280_temperature;BME280_humidity;BME280_pressure;Samples;Min_cycle;Max_cycle;Signal;HPM_P1;HPM_P2
2022/06/11 00:01:35;;;;;;;7.88;3.55;;;17.50;99.90;;;;;;5042534;28;20105;-37
2022/06/11 00:04:05;;;;;;;6.90;2.95;;;17.50;99.90;;;;;;5044333;28;20025;-39
2022/06/11 00:06:35;;;;;;;5.50;2.67;;;17.40;99.90;;;;;;5036764;28;20059;-39
2022/06/11 00:09:01;;;;;;;7.20;3.15;;;17.40;99.90;;;;;;5035391;28;20421;-37
2022/06/11 00:11:28;;;;;;;8.15;2.88;;;17.40;99.90;;;;;;5034012;28;20063;-35
2022/06/11 00:13:54;;;;;;;7.50;2.40;;;17.40;99.90;;;;;;5038855;28;20481;-40
2022/06/11 00:16:22;;;;;;;4.10;2.45;;;17.30;99.90;;;;;;5037326;28;20179;-36
2022/06/11 00:18:50;;;;;;;4.75;2.08;;;17.30;99.90;;;;;;5047714;28;20037;-39
2022/06/11 00:21:16;;;;;;;3.13;2.40;;;17.30;99.90;;;;;;5046835;28;20527;-39
2022/06/11 00:23:43;;;;;;;6.07;2.15;;;17.30;99.90;;;;;;5053008;28;20048;-39
2022/06/11 00:26:10;;;;;;;5.50;2.00;;;17.30;99.90;;;;;;5053557;28;20029;-37
2022/06/11 00:28:37;;;;;;;10.13;2.63;;;17.20;99.90;;;;;;5049959;28;20025;-38
2022/06/11 00:31:04;;;;;;;4.05;1.70;;;17.20;99.90;;;;;;5041754;28;20018;-31
2022/06/11 00:33:30;;;;;;;2.25;1.70;;;17.20;99.90;;;;;;5047669;28;20397;-38
2022/06/11 00:35:56;;;;;;;4.72;1.98;;;17.20;99.90;;;;;;5053713;28;20029;-39
2022/06/11 00:38:23;;;;;;;4.60;1.63;;;17.20;99.90;;;;;;5054899;28;20060;-53
2022/06/11 00:40:52;;;;;;;3.33;1.38;;;17.10;99.90;;;;;;5054816;28;20040;-34
2022/06/11 00:43:22;;;;;;;3.45;1.63;;;17.10;99.90;;;;;;5044677;28;20492;-36
2022/06/11 00:45:59;;;;;;;4.28;1.60;;;17.10;99.90;;;;;;5052828;28;20025;-35
2022/06/11 00:48:34;;;;;;;3.17;1.48;;;17.10;99.90;;;;;;5044804;28;20492;-37
2022/06/11 00:51:05;;;;;;;3.88;1.67;;;17.10;99.90;;;;;;5041514;28;20083;-33
2022/06/11 00:53:43;;;;;;;2.28;1.10;;;17.10;99.90;;;;;;5039631;28;20039;-33
2022/06/11 00:56:21;;;;;;;2.72;1.20;;;17.10;99.90;;;;;;5035086;28;20496;-31
2022/06/11 00:58:49;;;;;;;2.42;1.33;;;17.00;99.90;;;;;;5049760;28;20056;-31
2022/06/11 01:01:18;;;;;;;6.22;1.52;;;17.00;99.90;;;;;;5051227;28;20468;-30
2022/06/11 01:03:46;;;;;;;1.95;1.48;;;17.00;99.90;;;;;;5054243;28;20057;-35
2022/06/11 01:06:26;;;;;;;6.45;1.55;;;17.00;99.90;;;;;;5043396;28;20072;-34
2022/06/11 01:09:01;;;;;;;2.28;1.40;;;17.00;99.90;;;;;;5034777;28;20104;-36
2022/06/11 01:11:32;;;;;;;3.97;1.45;;;17.00;99.90;;;;;;5032848;28;20056;-36
2022/06/11 01:14:00;;;;;;;1.88;1.30;;;17.00;99.90;;;;;;5040813;28;20064;-33
2022/06/11 01:16:30;;;;;;;1.98;1.50;;;16.90;99.90;;;;;;5033048;28;20421;-33
2022/06/11 01:19:08;;;;;;;2.22;1.30;;;16.90;99.90;;;;;;5034939;28;20034;-32
2022/06/11 01:21:46;;;;;;;5.80;1.52;;;16.90;99.90;;;;;;5033689;28;20113;-33
2022/06/11 01:24:48;;;;;;;4.47;1.70;;;16.80;99.90;;;;;;5037956;28;20477;-30
2022/06/11 01:27:36;;;;;;;5.20;1.55;;;16.80;99.90;;;;;;5039827;28;20025;-32
2022/06/11 01:30:48;;;;;;;2.45;1.80;;;16.80;99.90;;;;;;5047483;28;20025;-48
2022/06/11 01:33:17;;;;;;;1.83;1.50;;;16.80;99.90;;;;;;5018355;28;20136;-39
2022/06/11 01:35:57;;;;;;;4.63;1.58;;;16.80;99.90;;;;;;5048634;28;20100;-39
2022/06/11 01:38:40;;;;;;;3.40;1.67;;;16.70;99.90;;;;;;5033698;28;20034;-37
2022/06/11 01:41:24;;;;;;;4.30;1.65;;;16.70;99.90;;;;;;5033647;28;20067;-37
2022/06/11 01:43:55;;;;;;;7.63;2.22;;;16.60;99.90;;;;;;5046851;28;20103;-35
2022/06/11 01:46:28;;;;;;;2.00;1.30;;;16.60;99.90;;;;;;5043473;28;20030;-32
2022/06/11 01:49:02;;;;;;;5.80;1.60;;;16.50;99.90;;;;;;5041759;28;20021;-35
2022/06/11 01:51:51;;;;;;;2.95;1.52;;;16.50;99.90;;;;;;5042608;28;20052;-32
2022/06/11 01:54:25;;;;;;;3.60;1.77;;;16.50;99.90;;;;;;5036104;28;20384;-31
2022/06/11 01:57:20;;;;;;;6.65;2.38;;;16.50;99.90;;;;;;5033715;28;20029;-49
2022/06/11 01:59:58;;;;;;;2.80;1.48;;;16.40;99.90;;;;;;5038130;28;20560;-37
2022/06/11 02:02:43;;;;;;;2.90;1.75;;;16.40;99.90;;;;;;5046750;28;20037;-38
2022/06/11 02:05:42;;;;;;;9.18;1.77;;;16.40;99.90;;;;;;5051623;28;20057;-43
2022/06/11 02:08:31;;;;;;;5.85;1.38;;;16.40;99.90;;;;;;5053214;28;20025;-37
2022/06/11 02:11:26;;;;;;;5.32;1.30;;;16.30;99.90;;;;;;5032489;28;20084;-39
2022/06/11 02:14:04;;;;;;;5.28;1.90;;;16.30;99.90;;;;;;5052527;28;20512;-69
2022/06/11 02:16:34;;;;;;;;;;;16.30;99.90;;;;;;5052812;28;20032;-32
2022/06/11 02:19:05;;;;;;;2.35;1.42;;;16.20;99.90;;;;;;5040704;28;19909;-32
2022/06/11 02:21:38;;;;;;;3.80;1.50;;;16.20;99.90;;;;;;5036484;28;20048;-36
2022/06/11 02:24:14;;;;;;;3.30;2.17;;;16.20;99.90;;;;;;5047101;28;20025;-36
2022/06/11 02:26:47;;;;;;;3.67;1.50;;;16.20;99.90;;;;;;5048103;28;20151;-34
2022/06/11 02:29:17;;;;;;;2.22;1.48;;;16.20;99.90;;;;;;5035776;28;20737;-33
2022/06/11 02:31:48;;;;;;;1.27;1.17;;;16.20;99.90;;;;;;5043194;28;20453;-34
2022/06/11 02:34:17;;;;;;;4.82;1.52;;;16.20;99.90;;;;;;5043174;28;20485;-50
2022/06/11 02:37:10;;;;;;;4.97;1.50;;;16.20;99.90;;;;;;5032981;28;20029;-38
2022/06/11 02:39:41;;;;;;;10.98;2.38;;;16.20;99.90;;;;;;5038276;28;20043;-38
2022/06/11 02:42:11;;;;;;;1.55;1.00;;;16.20;99.90;;;;;;5051334;28;20375;-37
2022/06/11 02:44:36;;;;;;;4.63;1.55;;;16.20;99.90;;;;;;5049232;28;20025;-39
2022/06/11 02:47:03;;;;;;;4.10;1.30;;;16.20;99.90;;;;;;5040956;28;20080;-59
2022/06/11 02:49:33;;;;;;;5.85;1.30;;;16.10;99.90;;;;;;5041020;28;20026;-38
2022/06/11 02:52:02;;;;;;;2.97;1.65;;;16.10;99.90;;;;;;5045376;28;20029;-38
2022/06/11 02:54:28;;;;;;;3.20;1.10;;;16.10;99.90;;;;;;5049032;28;20021;-37
2022/06/11 02:56:57;;;;;;;7.03;1.42;;;16.10;99.90;;;;;;5039003;28;20059;-37
2022/06/11 02:59:25;;;;;;;5.07;1.35;;;16.10;99.90;;;;;;5048918;28;20384;-39
2022/06/11 03:01:52;;;;;;;5.00;2.00;;;16.10;99.90;;;;;;5037291;28;20021;-50
2022/06/11 03:04:19;;;;;;;8.25;1.80;;;16.00;99.90;;;;;;5046997;28;20405;-38
2022/06/11 03:06:45;;;;;;;2.85;0.90;;;16.00;99.90;;;;;;5051806;28;20021;-35
2022/06/11 03:09:14;;;;;;;6.35;2.10;;;16.00;99.90;;;;;;5047800;28;20549;-30
2022/06/11 03:14:24;;;;;;;6.22;2.33;;;15.90;99.90;;;;;;5035482;28;20039;-31
2022/06/11 03:16:50;;;;;;;3.83;1.60;;;15.90;99.90;;;;;;5036261;28;20112;-33
2022/06/11 03:19:20;;;;;;;4.10;1.58;;;15.90;99.90;;;;;;5038126;28;20028;-31
2022/06/11 03:21:46;;;;;;;6.07;1.70;;;15.90;99.90;;;;;;5050243;28;20116;-31
2022/06/11 03:24:12;;;;;;;6.35;1.75;;;15.90;99.90;;;;;;5035995;28;20072;-35
2022/06/11 03:26:38;;;;;;;8.95;2.03;;;15.90;99.90;;;;;;5056276;28;20527;-37
2022/06/11 03:29:04;;;;;;;6.80;2.28;;;15.80;99.90;;;;;;5053982;28;20048;-40
2022/06/11 03:31:30;;;;;;;6.32;1.75;;;15.80;99.90;;;;;;5034986;28;20021;-38
2022/06/11 03:33:56;;;;;;;8.40;1.65;;;15.80;99.90;;;;;;5035406;28;20029;-36
2022/06/11 03:36:21;;;;;;;6.10;1.40;;;15.80;99.90;;;;;;5035689;28;20037;-31
2022/06/11 03:38:48;;;;;;;6.05;1.75;;;15.80;99.90;;;;;;5047206;28;20554;-33
2022/06/11 03:41:15;;;;;;;3.70;1.23;;;15.80;99.90;;;;;;5052721;28;20025;-32
2022/06/11 03:43:40;;;;;;;8.67;2.43;;;15.80;99.90;;;;;;5048924;28;20068;-32
2022/06/11 03:46:06;;;;;;;8.77;2.10;;;15.80;99.90;;;;;;5035810;28;20841;-34
2022/06/11 03:48:34;;;;;;;7.95;1.40;;;15.80;99.90;;;;;;5036651;28;20500;-39
2022/06/11 03:51:00;;;;;;;7.25;2.03;;;15.70;99.90;;;;;;5049938;28;20033;-38
2022/06/11 03:53:28;;;;;;;9.05;1.58;;;15.80;99.90;;;;;;5052521;28;20123;-39
2022/06/11 03:55:55;;;;;;;9.70;2.90;;;15.70;99.90;;;;;;5048778;28;20033;-38
2022/06/11 03:58:24;;;;;;;7.70;1.40;;;15.70;99.90;;;;;;5052128;28;20033;-37
2022/06/11 04:03:36;;;;;;;9.93;1.75;;;15.70;99.90;;;;;;5050767;28;20039;-38
2022/06/11 04:06:02;;;;;;;13.73;2.33;;;15.80;99.90;;;;;;5050912;28;20431;-39
2022/06/11 04:08:29;;;;;;;17.33;2.03;;;15.70;99.90;;;;;;5055480;28;20260;-47
2022/06/11 04:10:56;;;;;;;9.47;1.57;;;15.70;99.90;;;;;;5042683;28;20097;-38
2022/06/11 04:13:24;;;;;;;8.80;2.42;;;15.70;99.90;;;;;;5054054;28;20028;-37
2022/06/11 04:15:51;;;;;;;4.32;1.60;;;15.70;99.90;;;;;;5054118;28;20037;-36
2022/06/11 04:18:38;;;;;;;10.18;1.60;;;15.70;99.90;;;;;;5042531;28;20047;-32
2022/06/11 04:21:07;;;;;;;6.35;1.77;;;15.60;99.90;;;;;;5035121;28;20068;-33
2022/06/11 04:23:34;;;;;;;9.15;1.50;;;15.70;99.90;;;;;;5034762;28;20045;-31
2022/06/11 04:26:04;;;;;;;6.43;1.77;;;15.70;99.90;;;;;;5047942;28;20127;-33
2022/06/11 04:28:31;;;;;;;4.80;2.10;;;15.70;99.90;;;;;;5050092;28;20028;-37
2022/06/11 04:30:58;;;;;;;10.52;1.70;;;15.70;99.90;;;;;;5042641;28;20079;-35
2022/06/11 04:33:24;;;;;;;4.57;1.50;;;15.70;99.90;;;;;;5053261;28;20033;-36
2022/06/11 04:35:50;;;;;;;11.50;2.30;;;15.80;99.90;;;;;;5051564;28;20102;-34
2022/06/11 04:38:17;;;;;;;15.02;2.10;;;15.80;99.90;;;;;;5048180;28;20060;-32
2022/06/11 04:40:43;;;;;;;7.95;2.47;;;15.80;99.90;;;;;;5048860;28;20492;-35
2022/06/11 04:43:09;;;;;;;8.70;2.17;;;15.80;99.90;;;;;;5035047;28;20224;-31
2022/06/11 04:45:35;;;;;;;12.50;1.58;;;15.90;99.90;;;;;;5034818;28;20033;-47
2022/06/11 04:48:01;;;;;;;9.80;1.80;;;15.90;99.90;;;;;;5048949;28;20818;-37
2022/06/11 04:50:27;;;;;;;5.53;1.90;;;15.90;99.90;;;;;;5036196;28;20017;-34
2022/06/11 04:52:53;;;;;;;10.60;2.20;;;15.90;99.90;;;;;;5036430;28;20017;-40
2022/06/11 04:55:20;;;;;;;9.30;2.40;;;16.00;99.90;;;;;;5034559;28;20033;-39
2022/06/11 04:57:45;;;;;;;10.40;2.03;;;16.00;99.90;;;;;;5037336;28;20025;-38
2022/06/11 05:00:15;;;;;;;6.97;1.58;;;16.00;99.90;;;;;;5051512;28;20041;-38
2022/06/11 05:02:41;;;;;;;9.00;2.35;;;16.00;99.90;;;;;;5047356;28;20021;-38
2022/06/11 05:05:08;;;;;;;9.27;2.75;;;16.10;99.90;;;;;;5034428;28;20036;-36
2022/06/11 05:07:34;;;;;;;12.50;2.20;;;16.10;99.90;;;;;;5034402;28;20036;-39
2022/06/11 05:09:59;;;;;;;9.98;2.20;;;16.10;99.90;;;;;;5034205;28;20021;-40
2022/06/11 05:12:25;;;;;;;8.50;2.15;;;16.10;99.90;;;;;;5048397;28;20133;-39
2022/06/11 05:14:50;;;;;;;12.68;2.53;;;16.20;99.90;;;;;;5045035;28;20029;-38
2022/06/11 05:17:17;;;;;;;14.52;2.95;;;16.20;99.90;;;;;;5039795;28;20029;-38
2022/06/11 05:19:42;;;;;;;7.35;2.10;;;16.30;99.90;;;;;;5052608;28;20480;-38
2022/06/11 05:22:08;;;;;;;9.23;2.55;;;16.30;99.90;;;;;;5039182;28;20033;-37
2022/06/11 05:24:34;;;;;;;14.48;2.22;;;16.30;99.90;;;;;;5034167;28;20473;-37
2022/06/11 05:27:06;;;;;;;12.85;2.75;;;16.40;99.90;;;;;;5043811;28;20044;-38
2022/06/11 05:29:56;;;;;;;8.90;1.95;;;16.50;99.90;;;;;;5042224;28;20033;-37
2022/06/11 05:32:29;;;;;;;20.27;3.03;;;16.50;99.90;;;;;;5034022;28;20032;-37
2022/06/11 05:34:56;;;;;;;16.75;2.60;;;16.60;99.90;;;;;;5034161;28;20397;-37
2022/06/11 05:37:22;;;;;;;14.40;3.08;;;16.70;99.90;;;;;;5032533;28;20095;-37
2022/06/11 05:39:48;;;;;;;15.48;3.20;;;16.80;99.90;;;;;;5037081;28;20032;-37
2022/06/11 05:42:15;;;;;;;16.85;3.90;;;16.90;99.90;;;;;;5042813;28;20076;-38
2022/06/11 05:44:42;;;;;;;16.92;2.72;;;16.90;99.90;;;;;;5053442;28;20488;-37
2022/06/11 05:47:10;;;;;;;10.13;2.58;;;17.00;99.90;;;;;;5047288;28;20482;-38
2022/06/11 05:49:40;;;;;;;9.80;2.72;;;17.00;99.90;;;;;;5043257;28;20025;-38
2022/06/11 05:52:12;;;;;;;14.57;2.67;;;17.10;99.90;;;;;;5033271;28;20521;-38
2022/06/11 05:54:40;;;;;;;15.60;2.83;;;17.10;99.90;;;;;;5040221;28;20052;-39
2022/06/11 05:57:12;;;;;;;9.68;2.88;;;17.20;99.90;;;;;;5050456;28;20478;-41
2022/06/11 05:59:45;;;;;;;16.25;2.17;;;17.30;99.90;;;;;;5052570;28;20032;-37
2022/06/11 06:02:14;;;;;;;19.25;3.72;;;17.40;99.90;;;;;;5050133;28;20029;-39
2022/06/11 06:04:40;;;;;;;19.33;3.63;;;17.50;99.90;;;;;;5039601;28;20512;-47
2022/06/11 06:07:07;;;;;;;11.95;2.90;;;17.70;99.90;;;;;;5036013;28;20019;-38
2022/06/11 06:09:33;;;;;;;17.02;3.30;;;18.50;99.90;;;;;;5051667;28;20021;-39
2022/06/11 06:11:59;;;;;;;18.95;3.45;;;19.70;99.90;;;;;;5052421;28;20025;-40
2022/06/11 06:14:25;;;;;;;18.67;2.88;;;20.50;99.90;;;;;;5048064;28;20029;-59
2022/06/11 06:16:51;;;;;;;19.52;4.18;;;21.20;99.90;;;;;;5036972;28;20030;-40
2022/06/11 06:19:17;;;;;;;17.58;3.30;;;22.60;99.90;;;;;;5049681;28;20048;-37
2022/06/11 06:21:45;;;;;;;13.68;2.53;;;24.20;99.90;;;;;;5043737;28;20030;-40
2022/06/11 06:24:11;;;;;;;20.38;3.03;;;25.80;99.90;;;;;;5035008;28;20029;-33
2022/06/11 06:26:38;;;;;;;13.63;3.05;;;27.20;99.90;;;;;;5040542;28;20370;-36
2022/06/11 06:29:04;;;;;;;13.88;3.20;;;27.50;99.90;;;;;;5034542;28;20104;-33
2022/06/11 06:31:30;;;;;;;10.80;2.20;;;28.10;99.90;;;;;;5033864;28;20572;-32
2022/06/11 06:34:00;;;;;;;13.52;2.75;;;28.40;99.90;;;;;;5051548;28;20029;-31
2022/06/11 06:36:28;;;;;;;8.18;2.67;;;28.50;99.50;;;;;;5053071;28;20481;-33
2022/06/11 06:38:53;;;;;;;;;;;28.00;99.40;;;;;;5049503;28;20033;-39
2022/06/11 06:41:19;;;;;;;13.00;2.83;;;27.10;98.70;;;;;;5042223;28;20373;-32
2022/06/11 06:43:46;;;;;;;13.18;2.55;;;25.90;99.90;;;;;;5038935;28;20122;-32
2022/06/11 06:46:12;;;;;;;21.13;3.00;;;25.50;99.90;;;;;;5045944;28;20033;-38
2022/06/11 06:48:38;;;;;;;12.43;2.00;;;24.90;99.90;;;;;;5053323;28;20064;-41
2022/06/11 06:51:06;;;;;;;19.90;3.88;;;23.90;99.90;;;;;;5052946;28;20122;-40
2022/06/11 06:53:50;;;;;;;18.85;3.15;;;23.00;99.90;;;;;;5055493;28;20047;-39
2022/06/11 06:56:16;;;;;;;12.68;2.45;;;22.30;99.90;;;;;;5053781;28;20442;-41
2022/06/11 06:58:41;;;;;;;16.02;2.90;;;21.80;99.90;;;;;;5051023;28;20056;-39
2022/06/11 07:01:07;;;;;;;14.38;2.28;;;21.60;99.90;;;;;;5049242;28;20500;-39
2022/06/11 07:03:33;;;;;;;11.05;3.25;;;21.50;99.90;;;;;;5037618;28;20026;-39
2022/06/11 07:06:02;;;;;;;13.73;2.95;;;21.00;99.90;;;;;;5036990;28;20111;-55
2022/06/11 07:08:28;;;;;;;12.00;2.13;;;21.70;99.90;;;;;;5038873;28;20112;-39
2022/06/11 07:10:54;;;;;;;15.43;2.67;;;22.50;99.90;;;;;;5035557;28;20053;-34
2022/06/11 07:13:20;;;;;;;12.45;2.75;;;23.20;99.90;;;;;;5054607;28;20033;-39
2022/06/11 07:15:50;;;;;;;11.90;2.42;;;24.20;99.90;;;;;;5056572;28;20065;-38
2022/06/11 07:18:15;;;;;;;11.93;2.20;;;24.40;99.90;;;;;;5045099;28;20477;-40
2022/06/11 07:20:42;;;;;;;8.07;2.00;;;24.40;99.40;;;;;;5053616;28;20032;-38
2022/06/11 07:23:35;;;;;;;9.07;1.90;;;25.40;99.30;;;;;;5054734;28;20126;-39
2022/06/11 07:26:04;;;;;;;10.35;3.33;;;25.40;98.60;;;;;;5047905;28;20443;-39
2022/06/11 07:28:35;;;;;;;11.20;2.15;;;25.10;99.40;;;;;;5043788;28;20021;-40
2022/06/11 07:31:01;;;;;;;11.70;2.08;;;25.60;98.50;;;;;;5051518;28;20084;-35
2022/06/11 07:33:27;;;;;;;15.23;1.98;;;25.90;97.90;;;;;;5042465;28;20033;-34
2022/06/11 07:35:54;;;;;;;9.13;2.17;;;25.60;96.30;;;;;;5037638;28;20547;-38
2022/06/11 07:38:22;;;;;;;12.57;1.90;;;25.40;96.20;;;;;;5039237;28;20079;-32
2022/06/11 07:40:48;;;;;;;13.35;2.45;;;24.50;96.80;;;;;;5042071;28;20393;-32
2022/06/11 07:43:14;;;;;;;7.80;1.83;;;23.70;97.80;;;;;;5035953;28;20040;-31
2022/06/11 07:45:42;;;;;;;10.52;2.03;;;22.70;98.80;;;;;;5035914;28;20026;-33
2022/06/11 07:48:09;;;;;;;10.27;2.38;;;22.40;99.90;;;;;;5036252;28;20021;-40
2022/06/11 07:50:40;;;;;;;16.90;2.43;;;22.30;99.90;;;;;;5036559;28;20472;-45
2022/06/11 07:53:07;;;;;;;11.15;2.70;;;22.20;99.90;;;;;;5037045;28;20334;-40
2022/06/11 07:55:34;;;;;;;10.02;1.73;;;21.90;99.90;;;;;;5036512;28;20022;-44
2022/06/11 07:58:00;;;;;;;7.82;1.80;;;21.90;99.90;;;;;;5039001;28;20380;-40
2022/06/11 08:00:32;;;;;;;8.88;2.03;;;21.60;99.90;;;;;;5044445;28;20532;-44
2022/06/11 08:02:58;;;;;;;14.98;2.90;;;21.80;99.90;;;;;;5036838;28;20473;-43
2022/06/11 08:05:24;;;;;;;8.10;2.15;;;22.10;99.90;;;;;;5037666;28;20500;-37
2022/06/11 08:07:51;;;;;;;9.82;2.30;;;22.00;99.60;;;;;;5051402;28;20021;-39
2022/06/11 08:10:18;;;;;;;11.93;2.55;;;22.20;99.50;;;;;;5049304;28;20025;-38
2022/06/11 08:12:44;;;;;;;;;;;21.90;99.80;;;;;;5045962;28;20499;-38
2022/06/11 08:15:11;;;;;;;9.50;2.33;;;21.70;99.90;;;;;;5034304;28;19912;-39
2022/06/11 08:17:37;;;;;;;11.82;2.67;;;21.60;99.90;;;;;;5052430;28;20507;-37
2022/06/11 08:20:04;;;;;;;8.30;1.80;;;22.10;99.90;;;;;;5046372;28;20017;-40
2022/06/11 08:22:30;;;;;;;10.50;1.70;;;22.70;99.70;;;;;;5039682;28;20336;-38
2022/06/11 08:24:56;;;;;;;11.40;1.55;;;23.20;98.80;;;;;;5041889;28;20033;-38
2022/06/11 08:27:22;;;;;;;10.25;1.95;;;23.00;98.10;;;;;;5046797;28;20033;-39
2022/06/11 08:29:47;;;;;;;18.58;1.92;;;23.20;98.60;;;;;;5039399;28;20481;-42
2022/06/11 08:32:13;;;;;;;6.18;1.73;;;23.50;98.00;;;;;;5040696;28;20025;-38
2022/06/11 08:34:44;;;;;;;5.65;1.50;;;24.10;98.10;;;;;;5048047;28;20473;-39
2022/06/11 08:37:10;;;;;;;10.20;2.42;;;24.60;97.60;;;;;;5050060;28;20468;-39
2022/06/11 08:39:36;;;;;;;5.70;1.38;;;24.70;97.00;;;;;;5042431;28;20022;-38
2022/06/11 08:42:03;;;;;;;9.02;2.33;;;25.10;97.00;;;;;;5043580;28;20099;-39
2022/06/11 08:44:33;;;;;;;10.18;2.10;;;25.60;95.90;;;;;;5043422;28;20489;-38
2022/06/11 08:47:02;;;;;;;10.43;2.50;;;25.90;95.80;;;;;;5039414;28;20489;-41
2022/06/11 08:49:42;;;;;;;7.53;1.65;;;26.00;95.90;;;;;;5039156;28;20030;-39
2022/06/11 08:52:18;;;;;;;9.52;2.22;;;26.50;95.70;;;;;;5038111;28;20020;-39
2022/06/11 08:54:45;;;;;;;5.60;2.13;;;26.50;94.70;;;;;;5051817;28;20025;-42
2022/06/11 08:57:38;;;;;;;14.00;1.95;;;26.30;95.00;;;;;;5046537;28;20492;-40
2022/06/11 09:00:28;;;;;;;11.32;2.25;;;26.40;94.80;;;;;;5043110;28;20477;-41
2022/06/11 09:03:47;;;;;;;10.10;2.45;;;26.70;94.70;;;;;;5037271;28;20036;-40
2022/06/11 09:06:31;;;;;;;8.40;1.63;;;26.90;94.70;;;;;;4993157;28;20498;-39
2022/06/11 09:09:08;;;;;;;9.32;1.88;;;26.70;94.60;;;;;;5040581;28;20508;-40
2022/06/11 09:11:54;;;;;;;14.70;2.75;;;26.80;94.50;;;;;;5048398;28;20026;-33
2022/06/11 09:14:54;;;;;;;12.13;2.38;;;26.80;93.90;;;;;;5052606;28;20480;-38
2022/06/11 09:17:45;;;;;;;16.10;2.90;;;26.60;94.40;;;;;;5034564;28;20055;-55
2022/06/11 09:20:21;;;;;;;10.20;2.13;;;26.00;94.90;;;;;;5039747;28;20469;-38
2022/06/11 09:22:50;;;;;;;;;;;25.50;95.50;;;;;;5030663;28;20041;-36
2022/06/11 09:25:36;;;;;;;8.55;2.15;;;24.90;96.10;;;;;;5032074;28;19916;-39
2022/06/11 09:28:14;;;;;;;8.93;1.92;;;24.80;96.50;;;;;;5036590;28;20022;-41
2022/06/11 09:30:43;;;;;;;7.75;1.85;;;24.70;96.40;;;;;;5052411;28;20481;-36
2022/06/11 09:33:24;;;;;;;7.53;2.03;;;24.90;95.90;;;;;;5051284;28;20481;-41
2022/06/11 09:36:02;;;;;;;11.80;1.90;;;24.70;95.70;;;;;;5034942;28;20549;-38
2022/06/11 09:38:40;;;;;;;;;;;24.20;96.30;;;;;;5053086;28;20065;-37
2022/06/11 09:41:35;;;;;;;14.27;2.30;;;23.60;97.30;;;;;;5049697;28;19908;-39
2022/06/11 09:44:34;;;;;;;12.27;2.22;;;23.40;97.30;;;;;;5033279;28;20037;-39
2022/06/11 09:47:22;;;;;;;17.63;2.50;;;23.60;97.30;;;;;;5050041;28;20029;-43
2022/06/11 09:50:18;;;;;;;8.10;2.00;;;23.50;97.00;;;;;;5052292;28;20056;-39
2022/06/11 09:53:03;;;;;;;7.45;1.85;;;23.70;97.80;;;;;;5047836;28;20039;-39
2022/06/11 09:55:43;;;;;;;8.00;1.95;;;24.40;96.80;;;;;;5045940;28;20033;-37
2022/06/11 09:58:14;;;;;;;8.43;1.73;;;25.00;96.50;;;;;;5035444;28;20116;-39
2022/06/11 10:00:46;;;;;;;4.47;1.48;;;25.70;95.40;;;;;;5039741;28;20503;-39
2022/06/11 10:06:01;;;;;;;8.75;2.20;;;25.90;94.90;;;;;;5037524;28;20025;-39
2022/06/11 10:08:45;;;;;;;10.95;2.42;;;25.40;95.50;;;;;;5039628;28;20026;-38
2022/06/11 10:11:26;;;;;;;9.93;2.03;;;25.40;95.90;;;;;;5028774;28;20191;-39
2022/06/11 10:14:28;;;;;;;6.68;2.10;;;25.00;96.10;;;;;;5030067;28;20432;-34
2022/06/11 10:16:55;;;;;;;14.02;2.08;;;24.70;95.90;;;;;;5032886;28;20063;-40
2022/06/11 10:19:27;;;;;;;13.45;2.70;;;24.00;96.40;;;;;;5031548;28;20116;-37
2022/06/11 10:22:11;;;;;;;10.82;2.38;;;23.40;97.70;;;;;;5029722;28;20033;-39
2022/06/11 10:24:39;;;;;;;11.20;1.90;;;23.70;97.60;;;;;;5036049;28;20029;-31
2022/06/11 10:27:13;;;;;;;14.85;2.40;;;24.10;97.30;;;;;;5031555;28;20477;-35
2022/06/11 10:29:47;;;;;;;13.48;2.28;;;24.30;97.30;;;;;;5044497;28;20477;-34
2022/06/11 10:32:22;;;;;;;16.38;2.25;;;24.50;97.50;;;;;;5050592;28;20029;-34
2022/06/11 10:34:55;;;;;;;8.90;1.83;;;24.70;97.50;;;;;;5033079;28;20060;-32
2022/06/11 10:37:29;;;;;;;9.98;2.38;;;25.30;96.00;;;;;;5033245;28;20432;-31
2022/06/11 10:40:16;;;;;;;14.70;2.65;;;25.80;95.50;;;;;;5039168;28;20021;-34
2022/06/11 10:42:58;;;;;;;7.13;1.73;;;26.20;95.40;;;;;;5032942;28;20057;-34
2022/06/11 10:45:25;;;;;;;10.48;1.92;;;26.50;95.30;;;;;;5034370;28;20040;-38
2022/06/11 10:47:53;;;;;;;17.83;2.85;;;26.80;95.00;;;;;;5032256;28;20029;-30
2022/06/11 10:50:42;;;;;;;9.82;2.10;;;26.70;95.30;;;;;;5049553;28;20497;-33
2022/06/11 10:53:37;;;;;;;15.20;2.53;;;26.60;95.00;;;;;;5042541;28;20119;-35
2022/06/11 10:56:18;;;;;;;10.88;2.17;;;26.30;95.40;;;;;;5042540;28;20555;-33
2022/06/11 10:58:58;;;;;;;13.52;2.50;;;26.10;96.60;;;;;;5027961;28;20096;-48
2022/06/11 11:01:32;;;;;;;6.65;1.63;;;25.80;96.20;;;;;;5031929;28;20033;-42
2022/06/11 11:04:14;;;;;;;5.80;2.30;;;25.50;96.50;;;;;;5031726;28;20040;-39
2022/06/11 11:06:41;;;;;;;10.55;2.17;;;25.40;96.40;;;;;;5027655;28;20500;-54
2022/06/11 11:09:12;;;;;;;11.18;1.75;;;25.10;96.70;;;;;;5028198;28;20465;-33
2022/06/11 11:11:55;;;;;;;8.27;1.63;;;25.10;97.00;;;;;;5028137;28;20053;-37
2022/06/11 11:14:40;;;;;;;9.00;1.92;;;25.20;97.10;;;;;;5027176;28;20482;-41
2022/06/11 11:17:16;;;;;;;9.48;1.83;;;25.20;97.00;;;;;;5034870;28;20569;-34
2022/06/11 11:19:45;;;;;;;12.48;2.05;;;24.80;96.90;;;;;;5032866;28;20501;-34
2022/06/11 11:22:17;;;;;;;19.00;2.45;;;24.60;97.40;;;;;;5026641;28;20148;-41
2022/06/11 11:24:48;;;;;;;10.35;2.72;;;24.50;97.70;;;;;;5027501;28;20446;-50
2022/06/11 11:27:28;;;;;;;16.30;2.72;;;24.50;97.80;;;;;;5028525;28;20026;-42
2022/06/11 11:30:10;;;;;;;10.65;2.95;;;24.50;98.00;;;;;;5031195;28;20029;-39
2022/06/11 11:32:36;;;;;;;18.90;2.95;;;24.30;98.10;;;;;;5031931;28;20033;-41
2022/06/11 11:35:14;;;;;;;16.88;2.90;;;24.40;98.50;;;;;;5029488;28;20029;-36
2022/06/11 11:37:39;;;;;;;14.38;2.20;;;24.60;98.10;;;;;;5034184;28;20025;-39
2022/06/11 11:40:29;;;;;;;12.82;2.60;;;24.90;98.30;;;;;;5030106;28;20064;-39
2022/06/11 11:43:09;;;;;;;11.85;3.05;;;25.30;97.40;;;;;;5032200;28;20021;-48
2022/06/11 11:45:47;;;;;;;14.23;3.13;;;25.00;97.20;;;;;;5034638;28;20025;-42
2022/06/11 11:48:26;;;;;;;16.75;2.50;;;25.00;97.40;;;;;;5037412;28;20112;-37
2022/06/11 11:51:03;;;;;;;13.50;2.05;;;25.10;97.20;;;;;;5032161;28;20094;-40
2022/06/11 11:53:48;;;;;;;6.82;1.95;;;25.20;97.20;;;;;;5040828;28;20500;-39
2022/06/11 11:56:35;;;;;;;14.15;2.63;;;25.20;97.90;;;;;;5033346;28;20108;-34
2022/06/11 11:59:24;;;;;;;7.20;2.15;;;25.40;96.90;;;;;;5033159;28;20029;-37
2022/06/11 12:01:54;;;;;;;8.98;1.70;;;25.70;97.40;;;;;;5031141;28;20061;-40
2022/06/11 12:04:31;;;;;;;8.55;1.77;;;26.00;97.10;;;;;;5030927;28;20029;-38
2022/06/11 12:07:02;;;;;;;13.60;2.83;;;26.20;96.60;;;;;;5036348;28;20037;-37
2022/06/11 12:09:52;;;;;;;12.88;2.22;;;26.40;96.00;;;;;;5030319;28;20033;-42
2022/06/11 12:12:28;;;;;;;7.15;1.73;;;26.50;96.00;;;;;;5027016;28;20116;-40
2022/06/11 12:15:12;;;;;;;11.05;1.80;;;26.40;95.90;;;;;;5030776;28;20485;-40
2022/06/11 12:17:40;;;;;;;7.18;1.83;;;26.40;95.70;;;;;;5031314;28;20116;-35
2022/06/11 12:20:23;;;;;;;8.82;2.50;;;26.30;96.20;;;;;;5034269;28;20366;-33
2022/06/11 12:23:22;;;;;;;13.93;2.50;;;25.80;96.40;;;;;;5030191;28;20053;-38
2022/06/11 12:25:59;;;;;;;10.70;2.20;;;25.60;95.90;;;;;;5031561;28;20017;-34
2022/06/11 12:28:30;;;;;;;;;;;25.60;96.10;;;;;;5029544;28;20739;-41
2022/06/11 12:30:56;;;;;;;9.05;2.10;;;25.60;96.00;;;;;;5031333;28;20387;-40
2022/06/11 12:33:24;;;;;;;5.70;2.35;;;25.80;95.20;;;;;;5031802;28;20021;-37
2022/06/11 12:36:14;;;;;;;6.50;1.45;;;25.90;94.70;;;;;;5029976;28;20037;-38
2022/06/11 12:38:45;;;;;;;8.88;1.90;;;25.80;94.80;;;;;;5032359;28;20389;-33
2022/06/11 12:41:48;;;;;;;8.82;1.63;;;25.50;95.00;;;;;;5030748;28;20025;-41
2022/06/11 12:44:32;;;;;;;10.70;2.45;;;25.30;95.20;;;;;;5031408;28;20044;-33
2022/06/11 12:47:21;;;;;;;9.90;2.45;;;25.40;95.40;;;;;;5036724;28;20496;-34
2022/06/11 12:50:10;;;;;;;9.88;1.63;;;25.40;96.20;;;;;;5035909;28;20029;-38
2022/06/11 12:52:59;;;;;;;10.63;1.77;;;25.60;94.90;;;;;;5028905;28;20068;-32
2022/06/11 12:55:44;;;;;;;13.10;2.38;;;25.70;94.90;;;;;;5028921;28;20037;-33
2022/06/11 12:58:25;;;;;;;6.85;2.05;;;25.10;95.30;;;;;;5030407;28;20111;-39
2022/06/11 13:01:27;;;;;;;10.40;1.75;;;24.80;95.10;;;;;;5029127;28;20033;-35
2022/06/11 13:04:14;;;;;;;9.98;1.65;;;24.90;95.50;;;;;;5031621;28;20509;-33
2022/06/11 13:06:45;;;;;;;;;;;25.20;95.00;;;;;;5028370;28;20130;-33
2022/06/11 13:09:35;;;;;;;12.98;2.08;;;25.40;94.40;;;;;;5028170;28;20427;-35
2022/06/11 13:12:16;;;;;;;7.93;1.60;;;25.50;95.00;;;;;;5028563;28;20481;-35
2022/06/11 13:14:55;;;;;;;8.80;1.92;;;25.60;94.90;;;;;;5031737;28;20071;-36
2022/06/11 13:17:39;;;;;;;7.43;1.48;;;25.70;94.60;;;;;;5029090;28;20025;-40
2022/06/11 13:20:32;;;;;;;9.23;2.22;;;25.80;94.40;;;;;;5026911;28;20515;-31
2022/06/11 13:23:29;;;;;;;13.30;2.22;;;25.80;93.90;;;;;;5028112;28;20053;-38
2022/06/11 13:26:26;;;;;;;8.93;2.67;;;25.70;94.20;;;;;;5027180;28;20615;-32